首页
METAR-TAF:

METAR-TAF

机场 :

格拉茨, 奥地利

纬度: 47-00N, 经度: 015-26E, 海拔: 340米

当前天气观测

该预报发布于37分钟前的11:50 UTC
风速3节,风向南转南东,在东转东南南转西南之间变化
温度 -3°C
湿度 100%
气压 1020 hPa
能見度: 1800
多云层高于200英尺
阴天层高于300英尺
轻雾

METAR: LOWG 261150Z 15003KT 110V200 1800 BR BKN002 OVC003 M03/M03 Q1020 R17/19//95 BECMG OVC004

时间: 13:27 (12:27 UTC)

预报

该预报发布于1小时和12分钟前的11:15 UTC
预报有效从26日的 12点(UTC)到 27日的 12点(UTC)
风速2节,风向多变
能見度: 2000
层高于200英尺
轻雾
短暂存在
从 26日的 12点(UTC)到 26日的 18点(UTC)
能見度: 3000
多云层高于400英尺
轻雾
几率 30%
从 26日的 12点(UTC)到 26日的 16点(UTC)
能見度: 5000
多云层高于700英尺
短暂存在
从 26日的 19点(UTC)到 27日的 09点(UTC)
能見度: 0300
层高于100英尺
冻雾
短暂存在
从 27日的 10点(UTC)到 27日的 12点(UTC)
能見度: 3000
多云层高于600英尺

TAF: LOWG 261115Z 2612/2712 VRB02KT 2000 BR VV002 TX02/2712Z TNM02/2707Z TEMPO 2612/2618 3000 BR BKN004 PROB30 2612/2616 5000 BKN007 TEMPO 2619/2709 0300 FZFG VV001 TEMPO 2710/2712 3000 BKN006

超过4000个机场的气象观测和天气预报(METAR&TAF报告)。

可查询的气象台以黄色和红色小点在地图上表示。

将鼠标移到小点上方,可查看气象台名称。

然后点击查看天气观测和预报。

如需切换地图:点击带黑十字的绿色按钮放大地图;点击带横线的绿色按钮缩小地图;或者点击绿色箭头查看邻近地区的地图。


METAR-TAF: